Time;durP1;ratioP1;P1;durP2;ratioP2;P2;SDS_P1;SDS_P2;PMS_P1;PMS_P2;Temp;Humidity;BMP_temperature;BMP_pressure;BME280_temperature;BME280_humidity;BME280_pressure;Samples;Min_cycle;Max_cycle;Signal;HPM_P1;HPM_P2
2021/03/24 00:01:08;;;;;;;24.57;19.03;;;8.90;58.90;;;;;;5074426;28;21205;-52
2021/03/24 00:03:34;;;;;;;23.30;18.33;;;8.80;58.70;;;;;;5090883;28;20658;-52
2021/03/24 00:06:01;;;;;;;21.63;18.20;;;8.70;58.80;;;;;;5085986;28;20687;-52
2021/03/24 00:08:28;;;;;;;26.80;18.97;;;8.70;58.90;;;;;;5085025;28;20697;-52
2021/03/24 00:10:55;;;;;;;29.37;17.97;;;8.70;59.00;;;;;;5099459;28;20683;-52
2021/03/24 00:13:22;;;;;;;23.83;19.63;;;8.60;59.70;;;;;;5105022;28;20630;-52
2021/03/24 00:15:50;;;;;;;25.53;18.30;;;8.60;59.20;;;;;;5090557;28;21108;-51
2021/03/24 00:18:16;;;;;;;20.30;17.10;;;8.60;59.30;;;;;;5088818;28;20947;-52
2021/03/24 00:20:43;;;;;;;24.40;17.17;;;8.50;59.50;;;;;;5091256;28;20630;-53
2021/03/24 00:23:10;;;;;;;23.37;18.30;;;8.60;59.60;;;;;;5081561;28;20650;-51
2021/03/24 00:25:37;;;;;;;22.20;17.20;;;8.60;59.90;;;;;;5074494;28;21429;-51
2021/03/24 00:28:05;;;;;;;22.57;17.03;;;8.50;60.00;;;;;;5079732;28;20688;-51
2021/03/24 00:30:34;;;;;;;21.33;17.00;;;8.50;60.10;;;;;;5094742;28;20736;-50
2021/03/24 00:33:01;;;;;;;31.73;21.63;;;8.60;59.80;;;;;;5090635;28;20635;-49
2021/03/24 00:35:28;;;;;;;30.87;20.23;;;8.50;59.60;;;;;;5087437;28;21282;-50
2021/03/24 00:37:55;;;;;;;24.90;17.50;;;8.50;59.60;;;;;;5104993;28;20656;-50
2021/03/24 00:40:23;;;;;;;29.80;20.33;;;8.50;59.70;;;;;;5102226;28;20640;-50
2021/03/24 00:42:50;;;;;;;25.60;19.20;;;8.40;59.70;;;;;;5073492;28;21086;-49
2021/03/24 00:45:16;;;;;;;22.43;19.13;;;8.40;59.90;;;;;;5072185;28;20634;-50
2021/03/24 00:47:44;;;;;;;24.20;17.40;;;8.40;60.00;;;;;;5078870;28;20667;-49
2021/03/24 00:50:12;;;;;;;26.80;18.77;;;8.30;60.10;;;;;;5092294;28;20691;-50
2021/03/24 00:52:39;;;;;;;27.27;18.73;;;8.30;60.40;;;;;;5089721;28;21210;-50
2021/03/24 00:55:06;;;;;;;22.90;17.80;;;8.40;60.60;;;;;;5082124;28;20627;-50
2021/03/24 00:57:33;;;;;;;31.60;20.53;;;8.30;60.60;;;;;;5092679;28;20638;-50
2021/03/24 01:00:00;;;;;;;24.93;20.03;;;8.40;61.10;;;;;;5097136;28;20632;-51
2021/03/24 01:02:27;;;;;;;22.33;17.10;;;8.30;60.60;;;;;;5082548;28;20627;-51
2021/03/24 01:04:54;;;;;;;20.40;17.53;;;8.30;60.30;;;;;;5091875;28;20664;-51
2021/03/24 01:07:21;;;;;;;23.97;18.00;;;8.30;60.20;;;;;;5088624;28;20685;-52
2021/03/24 01:09:48;;;;;;;19.30;16.37;;;8.30;60.60;;;;;;5100805;28;20662;-50
2021/03/24 01:12:15;;;;;;;26.17;19.50;;;8.30;60.60;;;;;;5112301;28;21287;-51
2021/03/24 01:14:41;;;;;;;26.90;19.23;;;8.30;60.30;;;;;;5112771;28;20661;-51
2021/03/24 01:17:09;;;;;;;26.20;18.07;;;8.30;60.20;;;;;;5111967;28;20686;-51
2021/03/24 01:19:35;;;;;;;24.33;19.13;;;8.20;60.20;;;;;;5088769;28;21220;-50
2021/03/24 01:22:04;;;;;;;26.40;19.43;;;8.10;60.30;;;;;;5092501;28;20656;-51
2021/03/24 01:24:30;;;;;;;25.83;19.10;;;8.10;60.90;;;;;;5112311;28;20645;-51
2021/03/24 01:26:57;;;;;;;29.57;19.67;;;8.10;61.20;;;;;;5103501;28;20657;-51
2021/03/24 01:29:24;;;;;;;26.13;19.17;;;8.10;61.70;;;;;;5090687;28;20684;-50
2021/03/24 01:31:51;;;;;;;30.33;19.33;;;8.10;62.10;;;;;;5092175;28;20678;-50
2021/03/24 01:34:17;;;;;;;23.20;16.80;;;8.10;62.50;;;;;;5080372;28;20664;-50
2021/03/24 01:36:44;;;;;;;22.73;16.63;;;8.10;62.50;;;;;;5087901;28;20700;-50
2021/03/24 01:39:12;;;;;;;25.20;18.97;;;8.10;62.70;;;;;;5080138;28;20668;-51
2021/03/24 01:41:38;;;;;;;28.10;18.53;;;8.10;63.10;;;;;;5101003;28;20651;-50
2021/03/24 01:44:06;;;;;;;33.70;22.03;;;8.10;62.80;;;;;;5104821;28;20622;-51
2021/03/24 01:46:36;;;;;;;26.97;20.20;;;8.10;62.60;;;;;;5108632;28;20691;-51
2021/03/24 01:49:05;;;;;;;29.07;18.27;;;8.10;62.60;;;;;;5094040;28;21233;-51
2021/03/24 01:51:35;;;;;;;20.90;17.60;;;8.00;62.50;;;;;;5088417;28;20661;-49
2021/03/24 01:54:02;;;;;;;20.17;16.27;;;8.00;63.00;;;;;;5100035;28;20687;-50
2021/03/24 01:56:29;;;;;;;27.60;17.93;;;8.00;63.40;;;;;;5088767;28;20711;-50
2021/03/24 01:58:56;;;;;;;30.37;19.97;;;8.00;63.40;;;;;;5097627;28;20648;-49
2021/03/24 02:01:24;;;;;;;25.50;18.10;;;8.00;63.10;;;;;;5097887;28;20639;-50
2021/03/24 02:03:50;;;;;;;25.87;18.83;;;8.00;62.90;;;;;;5090824;28;21209;-51
2021/03/24 02:06:19;;;;;;;29.07;18.73;;;8.00;62.80;;;;;;5092255;28;21033;-49
2021/03/24 02:08:48;;;;;;;31.50;18.83;;;8.00;62.60;;;;;;5073690;28;20709;-50
2021/03/24 02:11:16;;;;;;;21.30;17.33;;;7.90;62.70;;;;;;5072370;28;20658;-50
2021/03/24 02:13:47;;;;;;;25.50;18.10;;;7.90;63.00;;;;;;5072410;28;20991;-51
2021/03/24 02:16:16;;;;;;;25.17;18.37;;;7.90;62.90;;;;;;5073796;28;20676;-50
2021/03/24 02:18:43;;;;;;;29.33;20.93;;;7.90;65.00;;;;;;5092157;28;21017;-51
2021/03/24 02:21:11;;;;;;;25.30;17.90;;;8.00;68.70;;;;;;5092594;28;20736;-50
2021/03/24 02:23:44;;;;;;;25.27;17.37;;;8.00;67.00;;;;;;5092190;28;20657;-51
2021/03/24 02:26:15;;;;;;;24.00;18.33;;;7.80;65.10;;;;;;5092425;28;20687;-50
2021/03/24 02:28:42;;;;;;;27.43;18.03;;;7.80;64.70;;;;;;5091606;28;20632;-51
2021/03/24 02:31:09;;;;;;;26.90;19.30;;;7.80;64.80;;;;;;5092056;28;21020;-51
2021/03/24 02:33:38;;;;;;;23.47;17.93;;;7.70;65.10;;;;;;5092242;28;20659;-51
2021/03/24 02:36:06;;;;;;;25.37;19.20;;;7.70;65.00;;;;;;5092313;28;20802;-51
2021/03/24 02:38:33;;;;;;;27.97;19.60;;;7.70;64.90;;;;;;5090544;28;21053;-49
2021/03/24 02:41:00;;;;;;;24.23;18.53;;;7.70;64.80;;;;;;5092407;28;20622;-50
2021/03/24 02:43:26;;;;;;;29.50;19.40;;;7.70;64.80;;;;;;5091641;28;20653;-51
2021/03/24 02:45:54;;;;;;;23.90;17.63;;;7.60;65.00;;;;;;5086244;28;20694;-51
2021/03/24 02:48:23;;;;;;;32.37;19.60;;;7.60;65.00;;;;;;5071159;28;20641;-50
2021/03/24 02:50:52;;;;;;;28.83;20.10;;;7.60;65.00;;;;;;5071834;28;20686;-50
2021/03/24 02:53:19;;;;;;;29.13;19.90;;;7.60;64.80;;;;;;5071998;28;20667;-50
2021/03/24 02:55:46;;;;;;;31.20;19.00;;;7.60;64.90;;;;;;5082584;28;20683;-49
2021/03/24 02:58:12;;;;;;;26.07;19.93;;;7.50;65.20;;;;;;5091331;28;20648;-50
2021/03/24 03:00:39;;;;;;;27.47;18.73;;;7.50;65.50;;;;;;5091995;28;20697;-50
2021/03/24 03:03:10;;;;;;;28.10;20.20;;;7.50;65.60;;;;;;5091887;28;20656;-50
2021/03/24 03:05:37;;;;;;;25.30;20.80;;;7.50;66.00;;;;;;5083924;28;20678;-49
2021/03/24 03:08:08;;;;;;;27.33;17.63;;;7.50;66.50;;;;;;5071235;28;20633;-49
2021/03/24 03:10:41;;;;;;;24.07;17.80;;;7.50;66.90;;;;;;5071465;28;21094;-50
2021/03/24 03:13:10;;;;;;;24.50;18.43;;;7.50;65.80;;;;;;5071443;28;20625;-50
2021/03/24 03:15:38;;;;;;;28.57;19.60;;;7.50;65.50;;;;;;5080707;28;20685;-50
2021/03/24 03:18:08;;;;;;;26.53;18.13;;;7.50;65.60;;;;;;5091668;28;20653;-53
2021/03/24 03:20:35;;;;;;;23.87;18.17;;;7.40;65.70;;;;;;5091943;28;20644;-51
2021/03/24 03:23:05;;;;;;;30.57;18.83;;;7.40;65.80;;;;;;5089932;28;20630;-52
2021/03/24 03:25:33;;;;;;;30.00;17.93;;;7.30;65.80;;;;;;5088789;28;21221;-49
2021/03/24 03:28:01;;;;;;;28.90;18.07;;;7.30;66.30;;;;;;5103006;28;20650;-50
2021/03/24 03:30:29;;;;;;;29.70;18.43;;;7.30;66.40;;;;;;5103197;28;20660;-50
2021/03/24 03:32:56;;;;;;;28.70;19.00;;;7.30;66.50;;;;;;5111934;28;20665;-50
2021/03/24 03:35:24;;;;;;;25.30;18.77;;;7.30;66.50;;;;;;5095894;28;21292;-51
2021/03/24 03:37:52;;;;;;;27.97;17.90;;;7.30;66.80;;;;;;5091332;28;20632;-50
2021/03/24 03:40:19;;;;;;;31.53;17.57;;;7.30;67.10;;;;;;5073539;28;20647;-50
2021/03/24 03:42:45;;;;;;;26.53;17.73;;;7.30;67.30;;;;;;5071353;28;20663;-50
2021/03/24 03:45:13;;;;;;;24.40;19.33;;;7.30;67.50;;;;;;5076044;28;20686;-49
2021/03/24 03:47:40;;;;;;;25.10;18.07;;;7.30;67.30;;;;;;5090725;28;20663;-50
2021/03/24 03:50:08;;;;;;;29.27;20.70;;;7.20;67.50;;;;;;5091149;28;20664;-50
2021/03/24 03:52:43;;;;;;;27.93;19.90;;;7.30;67.60;;;;;;5087354;28;20688;-49
2021/03/24 03:55:17;;;;;;;22.40;18.90;;;7.20;67.10;;;;;;5080318;28;20988;-49
2021/03/24 03:57:51;;;;;;;25.27;18.63;;;7.20;66.90;;;;;;5075136;28;20665;-50
2021/03/24 04:00:20;;;;;;;27.97;19.73;;;7.10;67.00;;;;;;5075188;28;21216;-50
2021/03/24 04:02:50;;;;;;;26.13;18.00;;;7.10;67.30;;;;;;5075033;28;20660;-50
2021/03/24 04:05:18;;;;;;;29.87;22.13;;;7.10;67.40;;;;;;5089455;28;20663;-48
2021/03/24 04:07:47;;;;;;;30.00;21.13;;;7.10;67.30;;;;;;5095850;28;20628;-51
2021/03/24 04:10:14;;;;;;;28.03;20.67;;;7.10;67.50;;;;;;5095331;28;20656;-49
2021/03/24 04:12:41;;;;;;;26.90;18.33;;;7.10;67.50;;;;;;5093444;28;20684;-50
2021/03/24 04:15:11;;;;;;;26.00;19.97;;;7.00;67.40;;;;;;5094929;28;20648;-50
2021/03/24 04:17:42;;;;;;;30.60;20.27;;;7.00;67.40;;;;;;5088918;28;20625;-50
2021/03/24 04:20:10;;;;;;;28.73;19.80;;;7.00;67.50;;;;;;5086609;28;20636;-49
2021/03/24 04:22:37;;;;;;;27.07;19.53;;;7.00;67.60;;;;;;5087869;28;20633;-49
2021/03/24 04:25:06;;;;;;;28.73;19.13;;;6.90;67.80;;;;;;5111084;28;20608;-49
2021/03/24 04:27:34;;;;;;;28.17;20.50;;;6.80;68.20;;;;;;5089128;27;20643;-49
2021/03/24 04:30:04;;;;;;;34.90;20.80;;;6.80;68.60;;;;;;5084493;28;20651;-50
2021/03/24 04:32:31;;;;;;;31.03;21.67;;;6.80;68.70;;;;;;5094513;28;20684;-49
2021/03/24 04:34:58;;;;;;;32.03;22.33;;;6.80;68.70;;;;;;5092493;28;20691;-49
2021/03/24 04:37:28;;;;;;;31.80;21.20;;;6.80;68.90;;;;;;5094125;28;20703;-50
2021/03/24 04:39:57;;;;;;;31.60;21.23;;;6.80;69.00;;;;;;5092680;28;21194;-51
2021/03/24 04:42:29;;;;;;;33.53;20.20;;;6.70;68.80;;;;;;5094544;28;21181;-50
2021/03/24 04:44:57;;;;;;;36.83;24.20;;;6.80;69.00;;;;;;5093944;28;20636;-49
2021/03/24 04:47:25;;;;;;;27.63;19.93;;;6.70;68.90;;;;;;5078726;28;20660;-50
2021/03/24 04:49:54;;;;;;;31.87;22.30;;;6.70;69.10;;;;;;5074351;28;20668;-49
2021/03/24 04:52:20;;;;;;;30.43;21.83;;;6.70;69.30;;;;;;5074667;28;20689;-49
2021/03/24 04:54:47;;;;;;;34.07;23.23;;;6.70;69.50;;;;;;5085360;28;20636;-51
2021/03/24 04:57:16;;;;;;;29.87;20.40;;;6.70;69.50;;;;;;5093670;28;20701;-51
2021/03/24 04:59:45;;;;;;;29.57;22.53;;;6.70;70.30;;;;;;5093982;28;20656;-52
2021/03/24 05:02:13;;;;;;;29.10;20.80;;;6.70;69.80;;;;;;5093414;28;20647;-50
2021/03/24 05:04:41;;;;;;;27.07;20.53;;;6.60;70.60;;;;;;5093604;28;21175;-50
2021/03/24 05:07:11;;;;;;;34.70;22.13;;;6.60;70.30;;;;;;5093137;28;20652;-51
2021/03/24 05:09:38;;;;;;;33.07;24.80;;;6.60;70.90;;;;;;5092492;28;20986;-51
2021/03/24 05:12:07;;;;;;;30.93;23.30;;;6.60;70.90;;;;;;5093083;28;20692;-51
2021/03/24 05:14:36;;;;;;;36.77;24.60;;;6.60;70.70;;;;;;5085830;28;20649;-50
2021/03/24 05:17:21;;;;;;;32.07;22.50;;;6.50;70.60;;;;;;5081391;28;21074;-51
2021/03/24 05:19:48;;;;;;;34.20;23.63;;;6.50;70.70;;;;;;5094389;28;20629;-50
2021/03/24 05:22:26;;;;;;;36.10;23.73;;;6.40;71.00;;;;;;5105536;28;20599;-51
2021/03/24 05:24:57;;;;;;;33.87;22.50;;;6.20;71.40;;;;;;5092943;28;20652;-51
2021/03/24 05:27:26;;;;;;;37.17;22.63;;;6.20;72.10;;;;;;5090202;28;21255;-50
2021/03/24 05:29:54;;;;;;;32.57;22.47;;;6.10;72.60;;;;;;5088803;28;20639;-49
2021/03/24 05:32:24;;;;;;;32.37;23.90;;;6.10;73.30;;;;;;5092231;28;20693;-52
2021/03/24 05:34:52;;;;;;;27.93;19.43;;;6.20;73.60;;;;;;5093217;28;20709;-50
2021/03/24 05:37:23;;;;;;;38.37;22.57;;;6.20;73.60;;;;;;5104521;28;20690;-50
2021/03/24 05:39:51;;;;;;;31.90;23.53;;;6.10;74.30;;;;;;5105224;28;20664;-49
2021/03/24 05:42:29;;;;;;;33.10;22.73;;;6.20;75.20;;;;;;5108576;28;20611;-50
2021/03/24 05:45:07;;;;;;;30.97;21.80;;;6.20;75.50;;;;;;5090978;28;20754;-51
2021/03/24 05:47:44;;;;;;;34.67;22.40;;;6.30;75.10;;;;;;5088234;28;20647;-51
2021/03/24 05:50:33;;;;;;;31.93;22.70;;;6.30;74.90;;;;;;5081896;28;20648;-52
2021/03/24 05:53:06;;;;;;;29.87;20.87;;;6.40;74.50;;;;;;5081717;28;21045;-52
2021/03/24 05:55:37;;;;;;;35.80;24.13;;;6.40;74.00;;;;;;5087829;28;20692;-52
2021/03/24 05:58:22;;;;;;;32.50;22.90;;;6.40;73.60;;;;;;5104355;28;20643;-51
2021/03/24 06:00:52;;;;;;;33.10;22.00;;;6.40;74.50;;;;;;5091137;27;20663;-51
2021/03/24 06:03:48;;;;;;;36.80;22.20;;;6.40;74.10;;;;;;5088203;28;20660;-50
2021/03/24 06:06:40;;;;;;;34.63;21.67;;;6.40;74.20;;;;;;5095051;28;20639;-50
2021/03/24 06:09:17;;;;;;;35.20;23.10;;;6.50;74.50;;;;;;5069870;28;20628;-50
2021/03/24 06:12:08;;;;;;;29.63;21.03;;;6.60;74.40;;;;;;5100502;28;20647;-50
2021/03/24 06:15:01;;;;;;;35.07;22.87;;;6.60;74.50;;;;;;5084375;28;20716;-50
2021/03/24 06:17:55;;;;;;;36.47;23.57;;;6.60;74.40;;;;;;5076528;28;20614;-52
2021/03/24 06:20:30;;;;;;;31.60;21.63;;;6.60;74.30;;;;;;5097092;28;20643;-50
2021/03/24 06:23:36;;;;;;;32.93;21.10;;;6.60;74.40;;;;;;5083648;28;20685;-50
2021/03/24 06:26:14;;;;;;;34.20;22.87;;;6.60;74.80;;;;;;5036802;28;20728;-50
2021/03/24 06:28:43;;;;;;;37.00;23.87;;;6.60;74.90;;;;;;5066662;28;20621;-50
2021/03/24 06:31:33;;;;;;;29.30;22.87;;;6.60;75.30;;;;;;5089536;28;21172;-49
2021/03/24 06:34:10;;;;;;;31.63;21.10;;;6.60;75.70;;;;;;5086052;28;20652;-49
2021/03/24 06:36:45;;;;;;;42.40;24.50;;;6.70;76.10;;;;;;5098620;28;20772;-48
2021/03/24 06:39:31;;;;;;;35.67;23.57;;;6.80;76.30;;;;;;5092674;28;20713;-51
2021/03/24 06:42:18;;;;;;;36.60;22.80;;;6.90;77.10;;;;;;5080565;28;20647;-51
2021/03/24 06:45:28;;;;;;;37.00;24.10;;;7.00;76.90;;;;;;5085121;28;20636;-51
2021/03/24 06:47:59;;;;;;;26.23;20.80;;;7.20;78.00;;;;;;5003105;28;20658;-50
2021/03/24 06:50:58;;;;;;;33.40;24.00;;;7.50;77.50;;;;;;5000832;28;20651;-51
2021/03/24 06:53:42;;;;;;;31.07;22.40;;;7.70;77.30;;;;;;5023082;28;20692;-49
2021/03/24 06:56:20;;;;;;;28.70;23.30;;;8.10;76.20;;;;;;5094350;28;20654;-49
2021/03/24 06:59:33;;;;;;;30.67;23.17;;;8.30;75.40;;;;;;5096262;28;21210;-49
2021/03/24 07:02:07;;;;;;;25.37;20.40;;;8.60;74.20;;;;;;5080886;28;20656;-51
2021/03/24 07:05:04;;;;;;;27.50;20.17;;;8.90;72.80;;;;;;5081656;28;20705;-51
2021/03/24 07:07:57;;;;;;;26.17;19.20;;;9.10;71.30;;;;;;5070798;28;21187;-51
2021/03/24 07:10:34;;;;;;;28.10;20.53;;;9.30;70.70;;;;;;5082338;28;20667;-51
2021/03/24 07:13:43;;;;;;;25.53;19.97;;;9.50;69.20;;;;;;5080582;28;20679;-49
2021/03/24 07:16:13;;;;;;;28.30;20.93;;;9.70;67.70;;;;;;5072717;28;20691;-50
2021/03/24 07:19:10;;;;;;;24.20;21.37;;;9.80;67.30;;;;;;5085434;28;20649;-50
2021/03/24 07:21:59;;;;;;;27.13;19.47;;;10.00;64.70;;;;;;5058756;28;20648;-50
2021/03/24 07:24:48;;;;;;;30.77;22.73;;;10.10;63.40;;;;;;5085245;28;20652;-50
2021/03/24 07:27:41;;;;;;;29.77;23.83;;;10.10;63.10;;;;;;5085071;28;20758;-53
2021/03/24 07:30:24;;;;;;;27.80;22.17;;;10.10;63.00;;;;;;5091053;28;20660;-49
2021/03/24 07:32:53;;;;;;;28.90;20.00;;;10.20;62.30;;;;;;5092236;28;20706;-51
2021/03/24 07:35:33;;;;;;;36.10;25.37;;;10.30;62.70;;;;;;5080489;28;20677;-51
2021/03/24 07:38:17;;;;;;;33.67;24.87;;;10.50;61.80;;;;;;5080166;28;21160;-51
2021/03/24 07:41:19;;;;;;;33.27;24.47;;;10.60;60.70;;;;;;5085340;28;20683;-50
2021/03/24 07:43:54;;;;;;;28.40;23.47;;;10.90;60.70;;;;;;5082850;28;20685;-51
2021/03/24 07:46:35;;;;;;;29.57;24.23;;;11.20;60.40;;;;;;5076397;28;20688;-49
2021/03/24 07:49:22;;;;;;;27.27;23.07;;;11.40;59.40;;;;;;5080823;28;20689;-52
2021/03/24 07:52:07;;;;;;;31.90;24.53;;;11.60;58.30;;;;;;5061829;28;21110;-52
2021/03/24 07:54:36;;;;;;;28.93;21.77;;;11.80;58.00;;;;;;5067838;28;20716;-51
2021/03/24 07:57:07;;;;;;;23.53;21.07;;;12.00;57.10;;;;;;5083959;28;20728;-50
2021/03/24 07:59:36;;;;;;;28.30;24.30;;;12.10;56.80;;;;;;5097256;28;20648;-50
2021/03/24 08:02:33;;;;;;;26.10;23.37;;;12.20;55.80;;;;;;5098808;28;20625;-50
2021/03/24 08:05:14;;;;;;;25.63;22.87;;;12.20;55.80;;;;;;5083277;28;20662;-51
2021/03/24 08:07:43;;;;;;;27.97;23.10;;;12.30;55.60;;;;;;5101962;28;20993;-51
2021/03/24 08:10:32;;;;;;;26.23;23.33;;;12.50;55.00;;;;;;5094331;28;20719;-50
2021/03/24 08:13:08;;;;;;;27.97;24.27;;;12.60;54.50;;;;;;5089918;28;20730;-51
2021/03/24 08:15:53;;;;;;;28.17;24.40;;;12.70;54.40;;;;;;5090595;28;20686;-50
2021/03/24 08:18:27;;;;;;;33.03;24.90;;;12.90;53.80;;;;;;5093930;28;20642;-52
2021/03/24 08:20:56;;;;;;;28.30;23.87;;;13.10;53.40;;;;;;5091696;28;20649;-52
2021/03/24 08:24:00;;;;;;;28.10;25.10;;;13.30;52.80;;;;;;5089479;28;20620;-52
2021/03/24 08:26:28;;;;;;;30.10;25.30;;;13.40;52.50;;;;;;5026650;28;21247;-51
2021/03/24 08:28:59;;;;;;;25.50;22.93;;;13.50;52.30;;;;;;5032200;28;20674;-50
2021/03/24 08:31:48;;;;;;;28.77;24.43;;;13.50;52.00;;;;;;5064127;28;20685;-51
2021/03/24 08:34:28;;;;;;;30.17;24.93;;;13.50;56.20;;;;;;5079025;28;20648;-51
2021/03/24 08:37:08;;;;;;;28.10;24.63;;;13.60;51.50;;;;;;5078294;28;20695;-51
2021/03/24 08:39:53;;;;;;;26.87;23.83;;;13.60;50.60;;;;;;5081271;28;20653;-51
2021/03/24 08:42:51;;;;;;;25.53;21.80;;;13.60;51.40;;;;;;5090886;28;20683;-51
2021/03/24 08:45:23;;;;;;;25.37;21.97;;;13.80;51.60;;;;;;5103334;28;20623;-50
2021/03/24 08:47:53;;;;;;;26.57;23.67;;;13.90;50.90;;;;;;5102005;27;20642;-50
2021/03/24 08:50:22;;;;;;;28.50;23.00;;;14.00;50.50;;;;;;5105036;27;20630;-51
2021/03/24 08:52:53;;;;;;;27.87;24.27;;;14.00;49.60;;;;;;5114185;28;21247;-49
2021/03/24 08:55:46;;;;;;;31.43;24.60;;;13.90;49.30;;;;;;5114922;28;20603;-52
2021/03/24 08:58:15;;;;;;;28.07;24.03;;;13.80;49.90;;;;;;5107110;28;20627;-53
2021/03/24 09:00:51;;;;;;;27.97;24.60;;;13.70;49.70;;;;;;5092420;28;20665;-53
2021/03/24 09:03:28;;;;;;;25.77;23.27;;;13.80;50.00;;;;;;5093298;28;20674;-52
2021/03/24 09:05:59;;;;;;;26.40;23.57;;;13.90;49.80;;;;;;5092688;28;20648;-52
2021/03/24 09:08:29;;;;;;;25.10;22.37;;;13.90;49.30;;;;;;5092701;28;20656;-52
2021/03/24 09:11:16;;;;;;;30.50;25.70;;;13.90;49.20;;;;;;5092684;28;20608;-52
2021/03/24 09:13:44;;;;;;;28.67;25.13;;;13.80;49.10;;;;;;5090827;28;21243;-53
2021/03/24 09:17:00;;;;;;;24.87;21.97;;;13.90;49.40;;;;;;5093276;28;20683;-52
2021/03/24 09:19:53;;;;;;;30.03;26.73;;;13.90;49.00;;;;;;5013925;28;20995;-52
2021/03/24 09:22:24;;;;;;;26.27;23.37;;;14.00;49.40;;;;;;5093252;28;20663;-51
2021/03/24 09:25:03;;;;;;;28.70;22.80;;;14.10;49.20;;;;;;5092647;28;20775;-51
2021/03/24 09:27:48;;;;;;;25.67;21.97;;;14.10;48.90;;;;;;5092284;28;20646;-50
2021/03/24 09:30:26;;;;;;;27.37;23.73;;;14.20;48.60;;;;;;5079693;28;21253;-50
2021/03/24 09:32:59;;;;;;;25.00;21.93;;;14.20;48.60;;;;;;5091687;28;20640;-51
2021/03/24 09:35:35;;;;;;;26.10;23.30;;;14.10;48.20;;;;;;5092643;28;21013;-51
2021/03/24 09:38:04;;;;;;;28.57;22.17;;;13.80;48.40;;;;;;5123442;22;20700;-52
2021/03/24 09:40:34;;;;;;;28.73;23.60;;;13.60;48.90;;;;;;5091484;28;20636;-53
2021/03/24 09:43:02;;;;;;;24.73;22.03;;;13.50;49.40;;;;;;5091491;28;20651;-53
2021/03/24 09:45:30;;;;;;;29.70;25.80;;;13.50;49.80;;;;;;5091324;28;20625;-53
2021/03/24 09:48:04;;;;;;;25.10;22.40;;;13.50;49.70;;;;;;5090708;28;21008;-53
2021/03/24 09:50:40;;;;;;;23.20;20.90;;;13.60;49.80;;;;;;5103426;28;20643;-53
2021/03/24 09:53:12;;;;;;;27.43;21.53;;;13.70;49.80;;;;;;5099469;28;20647;-53
2021/03/24 09:55:39;;;;;;;27.23;23.87;;;13.70;49.40;;;;;;5113681;28;21159;-54
2021/03/24 09:58:40;;;;;;;24.70;20.63;;;13.70;49.60;;;;;;5112906;28;20635;-51
2021/03/24 10:01:38;;;;;;;23.97;19.70;;;13.50;49.40;;;;;;5113842;27;20639;-52
2021/03/24 10:04:16;;;;;;;25.13;22.40;;;13.30;50.00;;;;;;5097104;28;21292;-53
2021/03/24 10:06:51;;;;;;;25.90;21.90;;;13.40;50.30;;;;;;5091493;28;20640;-51
2021/03/24 10:09:21;;;;;;;28.53;25.60;;;13.70;50.60;;;;;;5089147;28;20723;-54
2021/03/24 10:12:18;;;;;;;26.70;23.97;;;14.20;50.00;;;;;;5094821;28;20681;-52
2021/03/24 10:14:53;;;;;;;25.27;21.60;;;14.70;48.90;;;;;;5104983;28;20624;-55
2021/03/24 10:17:22;;;;;;;26.30;23.60;;;15.00;48.50;;;;;;5109504;28;20663;-53
2021/03/24 10:19:51;;;;;;;26.27;23.73;;;15.20;48.30;;;;;;5110992;28;20739;-53
2021/03/24 10:22:22;;;;;;;23.83;21.50;;;15.30;48.10;;;;;;5111137;28;20658;-54
2021/03/24 10:24:51;;;;;;;26.90;23.33;;;15.50;48.10;;;;;;5111670;28;20651;-55
2021/03/24 10:27:19;;;;;;;29.73;25.13;;;15.80;47.00;;;;;;5109833;28;20662;-53
2021/03/24 10:29:48;;;;;;;28.97;26.07;;;16.00;46.20;;;;;;5094102;28;20659;-54
2021/03/24 10:32:24;;;;;;;26.47;22.53;;;16.10;46.00;;;;;;5095649;28;21034;-56
2021/03/24 10:34:53;;;;;;;25.47;22.87;;;16.30;47.10;;;;;;5089797;28;20632;-53
2021/03/24 10:37:27;;;;;;;29.10;26.23;;;16.60;45.60;;;;;;5089663;28;20737;-54
2021/03/24 10:39:55;;;;;;;27.93;25.13;;;16.70;45.00;;;;;;5090612;28;21203;-53
2021/03/24 10:42:26;;;;;;;28.60;25.70;;;17.00;44.70;;;;;;5090942;28;20982;-56
2021/03/24 10:44:55;;;;;;;26.50;24.00;;;17.40;43.70;;;;;;5087205;28;21199;-53
2021/03/24 10:47:45;;;;;;;27.77;24.90;;;17.60;42.40;;;;;;5091794;28;21025;-52
2021/03/24 10:50:24;;;;;;;27.80;23.50;;;18.00;41.00;;;;;;5106991;28;21016;-54
2021/03/24 10:53:07;;;;;;;30.57;27.70;;;18.40;40.30;;;;;;5090891;28;20953;-53
2021/03/24 10:55:34;;;;;;;27.80;25.20;;;18.90;39.50;;;;;;5089885;28;21188;-53
2021/03/24 10:58:09;;;;;;;25.70;23.10;;;19.40;38.90;;;;;;5089430;28;20692;-55
2021/03/24 11:00:36;;;;;;;25.63;23.37;;;19.60;37.60;;;;;;5089572;28;20663;-52
2021/03/24 11:03:12;;;;;;;23.10;20.73;;;19.50;37.10;;;;;;5089654;28;20632;-54
2021/03/24 11:05:41;;;;;;;23.70;21.30;;;19.50;36.10;;;;;;5088683;28;20663;-53
2021/03/24 11:08:20;;;;;;;23.43;20.83;;;19.50;36.00;;;;;;5089066;28;20676;-56
2021/03/24 11:10:49;;;;;;;23.90;21.50;;;19.40;35.90;;;;;;5090409;28;20704;-54
2021/03/24 11:13:28;;;;;;;23.07;20.77;;;18.70;36.70;;;;;;5088729;28;20652;-53
2021/03/24 11:16:08;;;;;;;25.97;22.80;;;18.20;37.00;;;;;;5067894;28;20625;-54
2021/03/24 11:18:43;;;;;;;22.07;19.87;;;17.90;38.00;;;;;;5071793;28;20640;-57
2021/03/24 11:21:28;;;;;;;23.67;21.27;;;18.00;38.00;;;;;;5095013;28;20657;-57
2021/03/24 11:24:01;;;;;;;23.60;21.20;;;18.20;37.90;;;;;;5101546;28;20688;-53
2021/03/24 11:26:54;;;;;;;22.10;19.33;;;18.20;37.60;;;;;;5109937;28;20666;-54
2021/03/24 11:29:22;;;;;;;20.53;18.37;;;18.20;37.50;;;;;;5102650;28;20619;-55
2021/03/24 11:31:57;;;;;;;22.87;18.97;;;18.20;37.20;;;;;;5110875;28;20635;-52
2021/03/24 11:34:27;;;;;;;21.67;19.47;;;18.20;37.30;;;;;;5100974;28;20656;-52
2021/03/24 11:36:56;;;;;;;24.87;20.10;;;18.10;37.60;;;;;;5090110;28;21071;-54
2021/03/24 11:39:27;;;;;;;22.67;20.27;;;17.90;37.70;;;;;;5080849;28;20626;-53
2021/03/24 11:42:08;;;;;;;22.90;20.57;;;18.00;38.10;;;;;;5069803;28;21266;-54
2021/03/24 11:44:35;;;;;;;23.57;19.70;;;18.30;38.20;;;;;;5069985;28;21121;-53
2021/03/24 11:47:04;;;;;;;20.23;17.43;;;18.90;37.30;;;;;;5069716;28;21076;-53
2021/03/24 11:49:36;;;;;;;21.63;19.27;;;19.20;36.50;;;;;;5072239;28;20625;-51
2021/03/24 11:52:27;;;;;;;24.17;20.40;;;19.20;36.30;;;;;;5069528;28;20806;-52
2021/03/24 11:55:05;;;;;;;23.50;20.97;;;19.30;36.70;;;;;;5063759;28;20656;-56
2021/03/24 11:57:38;;;;;;;22.07;19.87;;;19.10;36.20;;;;;;5069330;28;20652;-53
2021/03/24 12:00:18;;;;;;;22.40;19.67;;;18.90;36.50;;;;;;5069176;28;20659;-53
2021/03/24 12:02:55;;;;;;;23.37;20.97;;;19.10;37.00;;;;;;5070343;28;20993;-53
2021/03/24 12:05:28;;;;;;;21.40;19.33;;;19.30;36.10;;;;;;5088188;28;20635;-52
2021/03/24 12:08:04;;;;;;;21.90;19.43;;;19.40;35.70;;;;;;5089850;28;20706;-54
2021/03/24 12:10:34;;;;;;;19.03;17.03;;;19.30;35.90;;;;;;5089450;28;21031;-52
2021/03/24 12:13:03;;;;;;;21.40;19.40;;;19.20;35.50;;;;;;5088532;28;21134;-52
2021/03/24 12:15:33;;;;;;;22.83;20.10;;;19.20;36.00;;;;;;5095550;28;20760;-55
2021/03/24 12:18:12;;;;;;;22.20;20.00;;;19.30;35.50;;;;;;5098794;28;20652;-53
2021/03/24 12:21:03;;;;;;;21.57;19.37;;;19.30;35.70;;;;;;5101286;28;20616;-53
2021/03/24 12:23:39;;;;;;;22.63;20.40;;;19.20;35.50;;;;;;5095094;28;20932;-55
2021/03/24 12:26:19;;;;;;;23.47;21.10;;;19.20;36.00;;;;;;5092333;28;21091;-54
2021/03/24 12:28:46;;;;;;;21.90;19.83;;;19.50;35.50;;;;;;5092662;28;20756;-52
2021/03/24 12:31:14;;;;;;;22.50;19.63;;;19.80;35.00;;;;;;5093155;28;20618;-55
2021/03/24 12:33:49;;;;;;;20.23;18.10;;;20.30;34.30;;;;;;5093133;28;20675;-54
2021/03/24 12:36:21;;;;;;;22.00;19.80;;;20.70;33.70;;;;;;5092766;28;20688;-55
2021/03/24 12:38:53;;;;;;;22.80;20.13;;;20.80;33.00;;;;;;5092720;28;20689;-55
2021/03/24 12:41:36;;;;;;;21.47;19.30;;;20.60;32.40;;;;;;5093170;28;20635;-52
2021/03/24 12:44:17;;;;;;;21.57;19.40;;;20.80;33.20;;;;;;5093273;28;20628;-54
2021/03/24 12:46:55;;;;;;;24.40;21.70;;;21.40;32.80;;;;;;5092936;28;20745;-52
2021/03/24 12:49:25;;;;;;;20.90;18.80;;;21.90;31.50;;;;;;5092493;28;20658;-52
2021/03/24 12:52:03;;;;;;;20.87;18.80;;;22.10;30.80;;;;;;5092218;28;20666;-56
2021/03/24 12:54:30;;;;;;;23.00;20.70;;;22.00;30.30;;;;;;5091628;28;20759;-53
2021/03/24 12:57:24;;;;;;;19.17;17.37;;;21.80;30.60;;;;;;5092705;28;20682;-53
2021/03/24 13:00:02;;;;;;;24.70;22.17;;;21.60;30.80;;;;;;5092554;28;21037;-52
2021/03/24 13:02:49;;;;;;;22.63;20.53;;;21.40;31.00;;;;;;5092439;28;20734;-50
2021/03/24 13:05:22;;;;;;;24.53;19.53;;;21.40;31.40;;;;;;5096831;28;21022;-51
2021/03/24 13:07:51;;;;;;;20.17;18.27;;;21.80;31.30;;;;;;5101344;28;21263;-53